sensor_id;sensor_type;location;lat;lon;timestamp;pressure;altitude;pressure_sealevel;temperature;humidity
10261;BME280;5175;42.606;23.388;2023-03-03T00:01:54;93767.09;;;4.69;100.00
10261;BME280;5175;42.606;23.388;2023-03-03T00:04:21;93753.19;;;4.57;100.00
10261;BME280;5175;42.606;23.388;2023-03-03T00:06:52;93754.69;;;4.53;100.00
10261;BME280;5175;42.606;23.388;2023-03-03T00:09:19;93766.69;;;4.60;100.00
10261;BME280;5175;42.606;23.388;2023-03-03T00:11:46;93758.28;;;4.63;100.00
10261;BME280;5175;42.606;23.388;2023-03-03T00:14:19;93754.28;;;4.61;100.00
10261;BME280;5175;42.606;23.388;2023-03-03T00:16:47;93748.78;;;4.62;100.00
10261;BME280;5175;42.606;23.388;2023-03-03T00:19:16;93754.19;;;4.72;100.00
10261;BME280;5175;42.606;23.388;2023-03-03T00:21:45;93749.81;;;4.83;100.00
10261;BME280;5175;42.606;23.388;2023-03-03T00:24:21;93758.06;;;4.86;100.00
10261;BME280;5175;42.606;23.388;2023-03-03T00:26:50;93753.75;;;4.80;100.00
10261;BME280;5175;42.606;23.388;2023-03-03T00:29:32;93753.47;;;4.77;100.00
10261;BME280;5175;42.606;23.388;2023-03-03T00:32:24;93750.75;;;4.72;100.00
10261;BME280;5175;42.606;23.388;2023-03-03T00:34:54;93738.28;;;4.51;100.00
10261;BME280;5175;42.606;23.388;2023-03-03T00:37:29;93739.56;;;4.65;100.00
10261;BME280;5175;42.606;23.388;2023-03-03T00:40:14;93740.09;;;4.67;100.00
10261;BME280;5175;42.606;23.388;2023-03-03T00:42:46;93739.22;;;4.61;100.00
10261;BME280;5175;42.606;23.388;2023-03-03T00:45:27;93727.44;;;4.69;100.00
10261;BME280;5175;42.606;23.388;2023-03-03T00:47:55;93724.41;;;4.60;100.00
10261;BME280;5175;42.606;23.388;2023-03-03T00:50:27;93721.16;;;4.53;100.00
10261;BME280;5175;42.606;23.388;2023-03-03T00:53:09;93715.59;;;4.55;100.00
10261;BME280;5175;42.606;23.388;2023-03-03T00:55:38;93716.00;;;4.63;100.00
10261;BME280;5175;42.606;23.388;2023-03-03T00:58:05;93708.56;;;4.60;100.00
10261;BME280;5175;42.606;23.388;2023-03-03T01:00:32;93697.91;;;4.55;100.00
10261;BME280;5175;42.606;23.388;2023-03-03T01:03:01;93703.75;;;4.57;100.00
10261;BME280;5175;42.606;23.388;2023-03-03T01:05:28;93702.09;;;4.51;100.00
10261;BME280;5175;42.606;23.388;2023-03-03T01:07:55;93698.91;;;4.49;100.00
10261;BME280;5175;42.606;23.388;2023-03-03T01:10:22;93697.38;;;4.53;100.00
10261;BME280;5175;42.606;23.388;2023-03-03T01:12:51;93696.97;;;4.61;100.00
10261;BME280;5175;42.606;23.388;2023-03-03T01:15:17;93696.44;;;4.42;100.00
10261;BME280;5175;42.606;23.388;2023-03-03T01:17:44;93690.88;;;4.61;100.00
10261;BME280;5175;42.606;23.388;2023-03-03T01:20:13;93640.94;;;4.21;100.00
10261;BME280;5175;42.606;23.388;2023-03-03T01:22:40;93675.69;;;4.51;100.00
10261;BME280;5175;42.606;23.388;2023-03-03T01:25:07;93691.41;;;4.63;100.00
10261;BME280;5175;42.606;23.388;2023-03-03T01:27:35;93696.00;;;4.67;100.00
10261;BME280;5175;42.606;23.388;2023-03-03T01:30:04;93692.84;;;4.70;100.00
10261;BME280;5175;42.606;23.388;2023-03-03T01:32:31;93683.69;;;4.56;100.00
10261;BME280;5175;42.606;23.388;2023-03-03T01:34:58;93684.06;;;4.65;100.00
10261;BME280;5175;42.606;23.388;2023-03-03T01:37:25;93682.13;;;4.60;100.00
10261;BME280;5175;42.606;23.388;2023-03-03T01:39:52;93679.81;;;4.64;100.00
10261;BME280;5175;42.606;23.388;2023-03-03T01:42:20;93668.38;;;4.58;100.00
10261;BME280;5175;42.606;23.388;2023-03-03T01:44:47;93681.66;;;4.63;100.00
10261;BME280;5175;42.606;23.388;2023-03-03T01:47:16;93681.03;;;4.56;100.00
10261;BME280;5175;42.606;23.388;2023-03-03T01:49:46;93703.75;;;4.57;100.00
10261;BME280;5175;42.606;23.388;2023-03-03T01:52:20;93675.56;;;4.63;100.00
10261;BME280;5175;42.606;23.388;2023-03-03T01:54:55;93673.13;;;4.56;100.00
10261;BME280;5175;42.606;23.388;2023-03-03T01:57:26;93676.63;;;4.62;100.00
10261;BME280;5175;42.606;23.388;2023-03-03T01:59:56;93656.78;;;4.59;100.00
10261;BME280;5175;42.606;23.388;2023-03-03T02:02:26;93683.75;;;4.61;100.00
10261;BME280;5175;42.606;23.388;2023-03-03T02:04:54;93677.13;;;4.42;100.00
10261;BME280;5175;42.606;23.388;2023-03-03T02:07:22;93660.03;;;4.28;100.00
10261;BME280;5175;42.606;23.388;2023-03-03T02:09:56;93675.28;;;4.42;100.00
10261;BME280;5175;42.606;23.388;2023-03-03T02:12:28;93671.22;;;4.52;100.00
10261;BME280;5175;42.606;23.388;2023-03-03T02:14:57;93672.97;;;4.46;100.00
10261;BME280;5175;42.606;23.388;2023-03-03T02:17:26;93546.78;;;3.71;100.00
10261;BME280;5175;42.606;23.388;2023-03-03T02:19:58;93675.91;;;4.50;100.00
10261;BME280;5175;42.606;23.388;2023-03-03T02:22:33;93677.25;;;4.52;100.00
10261;BME280;5175;42.606;23.388;2023-03-03T02:25:07;93668.44;;;4.41;100.00
10261;BME280;5175;42.606;23.388;2023-03-03T02:27:38;93684.50;;;4.40;100.00
10261;BME280;5175;42.606;23.388;2023-03-03T02:30:12;93674.59;;;4.30;100.00
10261;BME280;5175;42.606;23.388;2023-03-03T02:32:39;93673.72;;;4.41;100.00
10261;BME280;5175;42.606;23.388;2023-03-03T02:35:25;93673.00;;;4.29;100.00
10261;BME280;5175;42.606;23.388;2023-03-03T02:37:54;93666.84;;;4.24;100.00
10261;BME280;5175;42.606;23.388;2023-03-03T02:40:24;93664.50;;;4.44;100.00
10261;BME280;5175;42.606;23.388;2023-03-03T02:42:56;93681.13;;;4.44;100.00
10261;BME280;5175;42.606;23.388;2023-03-03T02:45:23;93675.63;;;4.46;100.00
10261;BME280;5175;42.606;23.388;2023-03-03T02:47:50;93606.31;;;4.01;100.00
10261;BME280;5175;42.606;23.388;2023-03-03T02:50:17;93663.94;;;4.42;100.00
10261;BME280;5175;42.606;23.388;2023-03-03T02:52:44;93664.78;;;4.48;100.00
10261;BME280;5175;42.606;23.388;2023-03-03T02:55:11;93673.28;;;4.50;100.00
10261;BME280;5175;42.606;23.388;2023-03-03T02:57:37;93675.06;;;4.44;100.00
10261;BME280;5175;42.606;23.388;2023-03-03T03:00:07;93658.63;;;4.42;100.00
10261;BME280;5175;42.606;23.388;2023-03-03T03:02:34;93668.00;;;4.50;100.00
10261;BME280;5175;42.606;23.388;2023-03-03T03:05:01;93667.38;;;4.42;100.00
10261;BME280;5175;42.606;23.388;2023-03-03T03:07:27;93668.72;;;4.45;100.00
10261;BME280;5175;42.606;23.388;2023-03-03T03:09:54;93668.72;;;4.45;100.00
10261;BME280;5175;42.606;23.388;2023-03-03T03:12:21;93617.50;;;4.08;100.00
10261;BME280;5175;42.606;23.388;2023-03-03T03:14:48;93662.09;;;4.42;100.00
10261;BME280;5175;42.606;23.388;2023-03-03T03:17:16;93664.66;;;4.37;100.00
10261;BME280;5175;42.606;23.388;2023-03-03T03:19:42;93666.56;;;4.42;100.00
10261;BME280;5175;42.606;23.388;2023-03-03T03:22:09;93671.06;;;4.41;100.00
10261;BME280;5175;42.606;23.388;2023-03-03T03:24:36;93669.13;;;4.37;100.00
10261;BME280;5175;42.606;23.388;2023-03-03T03:27:03;93671.06;;;4.41;100.00
10261;BME280;5175;42.606;23.388;2023-03-03T03:29:30;93650.91;;;4.35;100.00
10261;BME280;5175;42.606;23.388;2023-03-03T03:31:56;93663.84;;;4.37;100.00
10261;BME280;5175;42.606;23.388;2023-03-03T03:34:26;93666.44;;;4.32;100.00
10261;BME280;5175;42.606;23.388;2023-03-03T03:36:53;93660.72;;;4.40;100.00
10261;BME280;5175;42.606;23.388;2023-03-03T03:39:20;93646.34;;;4.31;100.00
10261;BME280;5175;42.606;23.388;2023-03-03T03:41:47;93646.66;;;4.34;100.00
10261;BME280;5175;42.606;23.388;2023-03-03T03:44:14;93657.53;;;4.38;100.00
10261;BME280;5175;42.606;23.388;2023-03-03T03:46:41;93561.63;;;3.77;100.00
10261;BME280;5175;42.606;23.388;2023-03-03T03:49:08;93649.88;;;4.36;100.00
10261;BME280;5175;42.606;23.388;2023-03-03T03:51:36;93645.84;;;4.34;100.00
10261;BME280;5175;42.606;23.388;2023-03-03T03:54:05;93650.59;;;4.32;100.00
10261;BME280;5175;42.606;23.388;2023-03-03T03:56:32;93648.50;;;4.34;100.00
10261;BME280;5175;42.606;23.388;2023-03-03T03:58:59;93648.34;;;4.40;100.00
10261;BME280;5175;42.606;23.388;2023-03-03T04:01:26;93632.09;;;4.32;100.00
10261;BME280;5175;42.606;23.388;2023-03-03T04:03:53;93601.56;;;4.19;100.00
10261;BME280;5175;42.606;23.388;2023-03-03T04:06:19;93630.66;;;4.41;100.00
10261;BME280;5175;42.606;23.388;2023-03-03T04:08:47;93633.28;;;4.41;100.00
10261;BME280;5175;42.606;23.388;2023-03-03T04:11:14;93640.00;;;4.49;100.00
10261;BME280;5175;42.606;23.388;2023-03-03T04:13:42;93621.19;;;4.45;100.00
10261;BME280;5175;42.606;23.388;2023-03-03T04:16:09;93643.44;;;4.49;100.00
10261;BME280;5175;42.606;23.388;2023-03-03T04:18:36;93639.94;;;4.43;100.00
10261;BME280;5175;42.606;23.388;2023-03-03T04:21:03;93635.94;;;4.41;100.00
10261;BME280;5175;42.606;23.388;2023-03-03T04:23:30;93643.59;;;4.42;100.00
10261;BME280;5175;42.606;23.388;2023-03-03T04:25:58;93633.59;;;4.44;100.00
10261;BME280;5175;42.606;23.388;2023-03-03T04:28:25;93630.59;;;4.36;100.00
10261;BME280;5175;42.606;23.388;2023-03-03T04:30:52;93634.31;;;4.40;100.00
10261;BME280;5175;42.606;23.388;2023-03-03T04:33:18;93637.28;;;4.43;100.00
10261;BME280;5175;42.606;23.388;2023-03-03T04:35:45;93660.66;;;4.35;100.00
10261;BME280;5175;42.606;23.388;2023-03-03T04:38:12;93629.72;;;4.30;100.00
10261;BME280;5175;42.606;23.388;2023-03-03T04:40:39;93616.38;;;4.20;100.00
10261;BME280;5175;42.606;23.388;2023-03-03T04:43:09;93579.13;;;4.00;100.00
10261;BME280;5175;42.606;23.388;2023-03-03T04:45:36;93628.09;;;4.29;100.00
10261;BME280;5175;42.606;23.388;2023-03-03T04:48:03;93622.81;;;4.29;100.00
10261;BME280;5175;42.606;23.388;2023-03-03T04:50:30;93621.25;;;4.28;100.00
10261;BME280;5175;42.606;23.388;2023-03-03T04:52:57;93628.97;;;4.35;100.00
10261;BME280;5175;42.606;23.388;2023-03-03T04:55:23;93628.66;;;4.31;100.00
10261;BME280;5175;42.606;23.388;2023-03-03T04:57:50;93640.03;;;4.32;100.00
10261;BME280;5175;42.606;23.388;2023-03-03T05:00:19;93637.31;;;4.27;100.00
10261;BME280;5175;42.606;23.388;2023-03-03T05:02:47;93638.94;;;4.11;100.00
10261;BME280;5175;42.606;23.388;2023-03-03T05:05:14;93633.72;;;4.16;100.00
10261;BME280;5175;42.606;23.388;2023-03-03T05:07:40;93625.25;;;4.14;100.00
10261;BME280;5175;42.606;23.388;2023-03-03T05:10:08;93635.41;;;4.22;100.00
10261;BME280;5175;42.606;23.388;2023-03-03T05:12:35;93644.34;;;4.21;100.00
10261;BME280;5175;42.606;23.388;2023-03-03T05:15:03;93630.94;;;4.06;100.00
10261;BME280;5175;42.606;23.388;2023-03-03T05:17:31;93631.09;;;4.16;100.00
10261;BME280;5175;42.606;23.388;2023-03-03T05:19:58;93629.78;;;4.19;100.00
10261;BME280;5175;42.606;23.388;2023-03-03T05:22:25;93636.75;;;4.25;100.00
10261;BME280;5175;42.606;23.388;2023-03-03T05:24:51;93632.00;;;4.05;100.00
10261;BME280;5175;42.606;23.388;2023-03-03T05:27:18;93643.75;;;3.98;100.00
10261;BME280;5175;42.606;23.388;2023-03-03T05:29:45;93648.81;;;3.83;100.00
10261;BME280;5175;42.606;23.388;2023-03-03T05:32:12;93645.75;;;3.91;100.00
10261;BME280;5175;42.606;23.388;2023-03-03T05:34:40;93646.97;;;4.00;100.00
10261;BME280;5175;42.606;23.388;2023-03-03T05:37:07;93643.88;;;4.24;100.00
10261;BME280;5175;42.606;23.388;2023-03-03T05:39:34;93648.06;;;4.42;100.00
10261;BME280;5175;42.606;23.388;2023-03-03T05:42:02;93490.66;;;3.38;100.00
10261;BME280;5175;42.606;23.388;2023-03-03T05:44:28;93647.22;;;4.36;100.00
10261;BME280;5175;42.606;23.388;2023-03-03T05:46:55;93660.88;;;4.50;100.00
10261;BME280;5175;42.606;23.388;2023-03-03T05:49:23;93646.59;;;4.29;100.00
10261;BME280;5175;42.606;23.388;2023-03-03T05:51:51;93633.44;;;4.34;100.00
10261;BME280;5175;42.606;23.388;2023-03-03T05:54:18;93653.53;;;4.35;100.00
10261;BME280;5175;42.606;23.388;2023-03-03T05:56:45;93656.94;;;4.53;100.00
10261;BME280;5175;42.606;23.388;2023-03-03T05:59:12;93658.69;;;4.64;100.00
10261;BME280;5175;42.606;23.388;2023-03-03T06:01:41;93658.69;;;4.64;100.00
10261;BME280;5175;42.606;23.388;2023-03-03T06:04:08;93629.16;;;4.50;100.00
10261;BME280;5175;42.606;23.388;2023-03-03T06:06:35;93657.53;;;4.76;100.00
10261;BME280;5175;42.606;23.388;2023-03-03T06:09:03;93653.72;;;4.67;100.00
10261;BME280;5175;42.606;23.388;2023-03-03T06:11:30;93653.25;;;4.75;100.00
10261;BME280;5175;42.606;23.388;2023-03-03T06:13:57;93654.81;;;4.71;100.00
10261;BME280;5175;42.606;23.388;2023-03-03T06:16:24;93657.53;;;4.76;100.00
10261;BME280;5175;42.606;23.388;2023-03-03T06:18:51;93652.56;;;4.80;100.00
10261;BME280;5175;42.606;23.388;2023-03-03T06:21:18;93669.88;;;4.71;100.00
10261;BME280;5175;42.606;23.388;2023-03-03T06:23:44;93670.94;;;4.53;100.00
10261;BME280;5175;42.606;23.388;2023-03-03T06:26:13;93672.28;;;4.72;100.00
10261;BME280;5175;42.606;23.388;2023-03-03T06:28:39;93662.59;;;4.83;100.00
10261;BME280;5175;42.606;23.388;2023-03-03T06:31:06;93661.09;;;4.87;100.00
10261;BME280;5175;42.606;23.388;2023-03-03T06:33:33;93656.91;;;4.91;100.00
10261;BME280;5175;42.606;23.388;2023-03-03T06:36:00;93663.72;;;4.87;100.00
10261;BME280;5175;42.606;23.388;2023-03-03T06:38:26;93660.78;;;4.83;100.00
10261;BME280;5175;42.606;23.388;2023-03-03T06:40:53;93667.47;;;4.91;100.00
10261;BME280;5175;42.606;23.388;2023-03-03T06:43:21;93666.19;;;4.93;100.00
10261;BME280;5175;42.606;23.388;2023-03-03T06:45:48;93667.91;;;4.83;100.00
10261;BME280;5175;42.606;23.388;2023-03-03T06:48:15;93651.00;;;4.62;100.00
10261;BME280;5175;42.606;23.388;2023-03-03T06:50:42;93660.34;;;4.70;100.00
10261;BME280;5175;42.606;23.388;2023-03-03T06:53:11;93674.53;;;4.85;100.00
10261;BME280;5175;42.606;23.388;2023-03-03T06:55:40;93672.47;;;4.87;100.00
10261;BME280;5175;42.606;23.388;2023-03-03T06:58:11;93676.53;;;4.95;100.00
10261;BME280;5175;42.606;23.388;2023-03-03T07:00:42;93660.22;;;4.81;100.00
10261;BME280;5175;42.606;23.388;2023-03-03T07:03:14;93675.22;;;4.97;100.00
10261;BME280;5175;42.606;23.388;2023-03-03T07:05:41;93675.03;;;4.82;100.00
10261;BME280;5175;42.606;23.388;2023-03-03T07:08:12;93685.13;;;5.07;100.00
10261;BME280;5175;42.606;23.388;2023-03-03T07:10:40;93678.38;;;5.16;100.00
10261;BME280;5175;42.606;23.388;2023-03-03T07:13:18;93665.63;;;4.91;100.00
10261;BME280;5175;42.606;23.388;2023-03-03T07:15:47;93637.47;;;4.80;100.00
10261;BME280;5175;42.606;23.388;2023-03-03T07:18:28;93667.22;;;5.14;100.00
10261;BME280;5175;42.606;23.388;2023-03-03T07:20:57;93669.47;;;5.27;100.00
10261;BME280;5175;42.606;23.388;2023-03-03T07:23:25;93676.25;;;5.18;100.00
10261;BME280;5175;42.606;23.388;2023-03-03T07:25:54;93678.75;;;5.03;100.00
10261;BME280;5175;42.606;23.388;2023-03-03T07:28:23;93679.94;;;5.17;100.00
10261;BME280;5175;42.606;23.388;2023-03-03T07:30:52;93669.63;;;5.16;100.00
10261;BME280;5175;42.606;23.388;2023-03-03T07:33:25;93657.69;;;5.13;100.00
10261;BME280;5175;42.606;23.388;2023-03-03T07:35:53;93660.19;;;5.25;100.00
10261;BME280;5175;42.606;23.388;2023-03-03T07:38:24;93675.66;;;5.38;100.00
10261;BME280;5175;42.606;23.388;2023-03-03T07:40:54;93669.84;;;5.36;100.00
10261;BME280;5175;42.606;23.388;2023-03-03T07:43:34;93660.97;;;5.47;100.00
10261;BME280;5175;42.606;23.388;2023-03-03T07:46:18;93665.66;;;5.66;100.00
10261;BME280;5175;42.606;23.388;2023-03-03T07:48:47;93662.50;;;5.69;100.00
10261;BME280;5175;42.606;23.388;2023-03-03T07:51:18;93667.84;;;5.75;100.00
10261;BME280;5175;42.606;23.388;2023-03-03T07:53:47;93667.84;;;5.75;100.00
10261;BME280;5175;42.606;23.388;2023-03-03T07:56:20;93666.63;;;5.60;100.00
10261;BME280;5175;42.606;23.388;2023-03-03T07:58:53;93664.75;;;5.83;100.00
10261;BME280;5175;42.606;23.388;2023-03-03T08:01:35;93656.44;;;5.74;100.00
10261;BME280;5175;42.606;23.388;2023-03-03T08:04:13;93629.59;;;5.60;100.00
10261;BME280;5175;42.606;23.388;2023-03-03T08:06:44;93659.91;;;5.75;100.00
10261;BME280;5175;42.606;23.388;2023-03-03T08:09:29;93659.63;;;6.03;100.00
10261;BME280;5175;42.606;23.388;2023-03-03T08:12:00;93656.22;;;6.07;100.00
10261;BME280;5175;42.606;23.388;2023-03-03T08:14:34;93659.22;;;6.16;100.00
10261;BME280;5175;42.606;23.388;2023-03-03T08:17:06;93651.00;;;6.17;100.00
10261;BME280;5175;42.606;23.388;2023-03-03T08:19:39;93659.47;;;6.19;100.00
10261;BME280;5175;42.606;23.388;2023-03-03T08:22:11;93658.72;;;6.24;100.00
10261;BME280;5175;42.606;23.388;2023-03-03T08:24:39;93653.69;;;6.22;100.00
10261;BME280;5175;42.606;23.388;2023-03-03T08:27:06;93656.25;;;6.49;100.00
10261;BME280;5175;42.606;23.388;2023-03-03T08:29:33;93653.38;;;6.19;100.00
10261;BME280;5175;42.606;23.388;2023-03-03T08:31:59;93657.69;;;6.30;100.00
10261;BME280;5175;42.606;23.388;2023-03-03T08:34:28;93652.97;;;6.37;100.00
10261;BME280;5175;42.606;23.388;2023-03-03T08:36:54;93642.91;;;6.34;100.00
10261;BME280;5175;42.606;23.388;2023-03-03T08:39:23;93644.72;;;6.28;100.00
10261;BME280;5175;42.606;23.388;2023-03-03T08:41:49;93645.28;;;6.36;100.00
10261;BME280;5175;42.606;23.388;2023-03-03T08:44:16;93644.06;;;6.11;100.00
10261;BME280;5175;42.606;23.388;2023-03-03T08:46:44;93630.44;;;5.93;100.00
10261;BME280;5175;42.606;23.388;2023-03-03T08:49:10;93636.81;;;5.70;100.00
10261;BME280;5175;42.606;23.388;2023-03-03T08:51:39;93650.28;;;5.90;100.00
10261;BME280;5175;42.606;23.388;2023-03-03T08:54:05;93641.22;;;5.86;100.00
10261;BME280;5175;42.606;23.388;2023-03-03T08:56:32;93639.38;;;5.87;100.00
10261;BME280;5175;42.606;23.388;2023-03-03T08:59:00;93645.28;;;5.99;100.00
10261;BME280;5175;42.606;23.388;2023-03-03T09:01:27;93646.09;;;5.99;100.00
10261;BME280;5175;42.606;23.388;2023-03-03T09:03:56;93650.38;;;6.05;100.00
10261;BME280;5175;42.606;23.388;2023-03-03T09:06:23;93659.16;;;6.11;100.00
10261;BME280;5175;42.606;23.388;2023-03-03T09:08:51;93654.88;;;6.05;100.00
10261;BME280;5175;42.606;23.388;2023-03-03T09:11:23;93644.31;;;6.10;100.00
10261;BME280;5175;42.606;23.388;2023-03-03T09:14:01;93650.25;;;6.27;100.00
10261;BME280;5175;42.606;23.388;2023-03-03T09:16:35;93635.34;;;6.11;100.00
10261;BME280;5175;42.606;23.388;2023-03-03T09:19:15;93652.00;;;6.11;100.00
10261;BME280;5175;42.606;23.388;2023-03-03T09:21:45;93629.44;;;6.04;100.00
10261;BME280;5175;42.606;23.388;2023-03-03T09:24:19;93638.53;;;6.13;100.00
10261;BME280;5175;42.606;23.388;2023-03-03T09:26:48;93647.31;;;6.18;100.00
10261;BME280;5175;42.606;23.388;2023-03-03T09:29:23;93650.63;;;6.04;100.00
10261;BME280;5175;42.606;23.388;2023-03-03T09:31:52;93655.44;;;6.12;100.00
10261;BME280;5175;42.606;23.388;2023-03-03T09:34:22;93627.59;;;6.04;100.00
10261;BME280;5175;42.606;23.388;2023-03-03T09:36:50;93629.91;;;5.96;100.00
10261;BME280;5175;42.606;23.388;2023-03-03T09:39:21;93652.19;;;6.37;100.00
10261;BME280;5175;42.606;23.388;2023-03-03T09:42:14;93653.75;;;6.32;100.00
10261;BME280;5175;42.606;23.388;2023-03-03T09:45:01;93643.84;;;6.18;100.00
10261;BME280;5175;42.606;23.388;2023-03-03T09:47:44;93636.47;;;6.25;100.00
10261;BME280;5175;42.606;23.388;2023-03-03T09:50:24;93640.03;;;6.41;100.00
10261;BME280;5175;42.606;23.388;2023-03-03T09:53:01;93654.13;;;6.51;100.00
10261;BME280;5175;42.606;23.388;2023-03-03T09:55:41;93650.94;;;6.49;100.00
10261;BME280;5175;42.606;23.388;2023-03-03T09:58:23;93657.03;;;6.50;100.00
10261;BME280;5175;42.606;23.388;2023-03-03T10:00:58;93652.25;;;6.47;100.00
10261;BME280;5175;42.606;23.388;2023-03-03T10:06:26;93634.34;;;6.69;100.00
10261;BME280;5175;42.606;23.388;2023-03-03T10:09:25;93654.72;;;6.63;100.00
10261;BME280;5175;42.606;23.388;2023-03-03T10:12:03;93648.88;;;6.56;100.00
10261;BME280;5175;42.606;23.388;2023-03-03T10:15:00;93651.25;;;6.58;100.00
10261;BME280;5175;42.606;23.388;2023-03-03T10:17:42;93637.31;;;6.77;100.00
10261;BME280;5175;42.606;23.388;2023-03-03T10:20:24;93643.38;;;6.78;100.00
10261;BME280;5175;42.606;23.388;2023-03-03T10:22:54;93640.78;;;6.83;100.00
10261;BME280;5175;42.606;23.388;2023-03-03T10:25:28;93644.00;;;6.90;100.00
10261;BME280;5175;42.606;23.388;2023-03-03T10:28:25;93637.91;;;6.89;100.00
10261;BME280;5175;42.606;23.388;2023-03-03T10:31:03;93640.03;;;6.92;100.00
10261;BME280;5175;42.606;23.388;2023-03-03T10:33:41;93632.84;;;6.88;100.00
10261;BME280;5175;42.606;23.388;2023-03-03T10:36:38;93623.84;;;6.89;100.00
10261;BME280;5175;42.606;23.388;2023-03-03T10:39:28;93628.38;;;6.99;100.00
10261;BME280;5175;42.606;23.388;2023-03-03T10:42:09;93615.88;;;6.94;100.00
10261;BME280;5175;42.606;23.388;2023-03-03T10:44:55;93628.38;;;7.04;100.00
10261;BME280;5175;42.606;23.388;2023-03-03T10:47:36;93626.25;;;6.96;100.00
10261;BME280;5175;42.606;23.388;2023-03-03T10:50:13;93627.59;;;6.98;100.00
10261;BME280;5175;42.606;23.388;2023-03-03T10:52:46;93617.22;;;6.97;100.00
10261;BME280;5175;42.606;23.388;2023-03-03T10:55:35;93625.22;;;7.07;100.00
10261;BME280;5175;42.606;23.388;2023-03-03T10:58:20;93621.22;;;6.99;100.00
10261;BME280;5175;42.606;23.388;2023-03-03T11:00:54;93620.22;;;7.15;100.00
10261;BME280;5175;42.606;23.388;2023-03-03T11:03:41;93614.06;;;7.05;100.00
10261;BME280;5175;42.606;23.388;2023-03-03T11:06:19;93616.94;;;6.83;100.00
10261;BME280;5175;42.606;23.388;2023-03-03T11:08:52;93604.47;;;6.93;100.00
10261;BME280;5175;42.606;23.388;2023-03-03T11:11:29;93616.16;;;6.87;100.00
10261;BME280;5175;42.606;23.388;2023-03-03T11:14:02;93598.88;;;6.75;100.00
10261;BME280;5175;42.606;23.388;2023-03-03T11:16:40;93595.94;;;6.76;100.00
10261;BME280;5175;42.606;23.388;2023-03-03T11:19:25;93598.38;;;6.83;100.00
10261;BME280;5175;42.606;23.388;2023-03-03T11:22:05;93592.28;;;6.92;100.00
10261;BME280;5175;42.606;23.388;2023-03-03T11:24:44;93595.75;;;6.93;100.00
10261;BME280;5175;42.606;23.388;2023-03-03T11:27:28;93594.16;;;6.97;100.00
10261;BME280;5175;42.606;23.388;2023-03-03T11:30:06;93586.22;;;6.97;100.00
10261;BME280;5175;42.606;23.388;2023-03-03T11:32:48;93526.47;;;6.69;100.00
10261;BME280;5175;42.606;23.388;2023-03-03T11:35:22;93590.53;;;7.23;100.00
10261;BME280;5175;42.606;23.388;2023-03-03T11:37:59;93600.81;;;7.10;100.00
10261;BME280;5175;42.606;23.388;2023-03-03T11:40:33;93592.31;;;7.03;100.00
10261;BME280;5175;42.606;23.388;2023-03-03T11:43:09;93596.47;;;6.78;100.00
10261;BME280;5175;42.606;23.388;2023-03-03T11:45:41;93559.84;;;6.70;100.00
10261;BME280;5175;42.606;23.388;2023-03-03T11:48:17;93582.69;;;6.81;100.00
10261;BME280;5175;42.606;23.388;2023-03-03T11:50:54;93581.47;;;6.42;100.00
10261;BME280;5175;42.606;23.388;2023-03-03T11:53:39;93567.25;;;6.11;100.00
10261;BME280;5175;42.606;23.388;2023-03-03T11:56:21;93574.44;;;6.16;100.00
10261;BME280;5175;42.606;23.388;2023-03-03T11:59:02;93573.16;;;6.18;100.00
10261;BME280;5175;42.606;23.388;2023-03-03T12:01:35;93575.34;;;6.32;100.00
10261;BME280;5175;42.606;23.388;2023-03-03T12:04:10;93576.19;;;6.47;100.00
10261;BME280;5175;42.606;23.388;2023-03-03T12:06:51;93573.81;;;6.51;100.00
10261;BME280;5175;42.606;23.388;2023-03-03T12:09:37;93580.28;;;6.70;100.00
10261;BME280;5175;42.606;23.388;2023-03-03T12:12:07;93563.53;;;6.59;100.00
10261;BME280;5175;42.606;23.388;2023-03-03T12:14:49;93580.31;;;6.75;100.00
10261;BME280;5175;42.606;23.388;2023-03-03T12:17:30;93580.84;;;6.82;100.00
10261;BME280;5175;42.606;23.388;2023-03-03T12:20:08;93575.03;;;6.85;100.00
10261;BME280;5175;42.606;23.388;2023-03-03T12:22:41;93587.81;;;7.03;100.00
10261;BME280;5175;42.606;23.388;2023-03-03T12:25:21;93583.53;;;6.92;100.00
10261;BME280;5175;42.606;23.388;2023-03-03T12:27:53;93582.63;;;6.61;100.00
10261;BME280;5175;42.606;23.388;2023-03-03T12:30:34;93588.38;;;6.48;100.00
10261;BME280;5175;42.606;23.388;2023-03-03T12:33:20;93583.91;;;6.54;100.00
10261;BME280;5175;42.606;23.388;2023-03-03T12:35:57;93574.09;;;6.49;100.00
10261;BME280;5175;42.606;23.388;2023-03-03T12:38:34;93584.44;;;6.56;100.00
10261;BME280;5175;42.606;23.388;2023-03-03T12:41:07;93577.59;;;6.60;100.00
10261;BME280;5175;42.606;23.388;2023-03-03T12:43:46;93583.72;;;6.70;100.00
10261;BME280;5175;42.606;23.388;2023-03-03T12:46:23;93590.44;;;6.93;100.00
10261;BME280;5175;42.606;23.388;2023-03-03T12:48:51;93583.81;;;6.96;100.00
10261;BME280;5175;42.606;23.388;2023-03-03T12:51:29;93584.84;;;6.89;100.00
10261;BME280;5175;42.606;23.388;2023-03-03T12:57:12;93572.84;;;6.67;100.00
10261;BME280;5175;42.606;23.388;2023-03-03T12:59:44;93519.50;;;6.53;100.00
10261;BME280;5175;42.606;23.388;2023-03-03T13:02:28;93570.53;;;6.85;100.00
10261;BME280;5175;42.606;23.388;2023-03-03T13:05:08;93554.56;;;6.70;100.00
10261;BME280;5175;42.606;23.388;2023-03-03T13:07:40;93573.44;;;6.89;100.00
10261;BME280;5175;42.606;23.388;2023-03-03T13:10:16;93573.47;;;6.94;100.00
10261;BME280;5175;42.606;23.388;2023-03-03T13:12:49;93577.97;;;6.93;100.00
10261;BME280;5175;42.606;23.388;2023-03-03T13:15:21;93565.25;;;6.96;100.00
10261;BME280;5175;42.606;23.388;2023-03-03T13:17:59;93573.25;;;7.06;100.00
10261;BME280;5175;42.606;23.388;2023-03-03T13:20:40;93570.13;;;7.29;100.00
10261;BME280;5175;42.606;23.388;2023-03-03T13:23:20;93504.50;;;6.89;100.00
10261;BME280;5175;42.606;23.388;2023-03-03T13:25:57;93571.97;;;7.38;100.00
10261;BME280;5175;42.606;23.388;2023-03-03T13:28:31;93568.50;;;7.33;100.00
10261;BME280;5175;42.606;23.388;2023-03-03T13:31:03;93570.66;;;7.41;100.00